createdAt,value
2019-01-10T00:00:49.278Z,101825.64
2019-01-10T00:05:42.191Z,101828.32
2019-01-10T00:10:35.074Z,101828.89
2019-01-10T00:15:28.042Z,101834.13
2019-01-10T00:20:22.705Z,101839.87
2019-01-10T00:25:15.629Z,101858.73
2019-01-10T00:30:16.887Z,101866.04
2019-01-10T00:35:10.360Z,101859.77
2019-01-10T00:40:05.335Z,101861.89
2019-01-10T00:44:58.260Z,101853.45
2019-01-10T00:49:51.211Z,101873.75
2019-01-10T00:54:44.122Z,101881.45
2019-01-10T00:59:37.007Z,101877.64
2019-01-10T01:04:29.972Z,101882.96
2019-01-10T01:09:22.884Z,101873.09
2019-01-10T01:14:15.888Z,101874.95
2019-01-10T01:19:09.043Z,101884.83
2019-01-10T01:24:02.012Z,101877.53
2019-01-10T01:28:54.961Z,101884.53
2019-01-10T01:33:47.883Z,101885.26
2019-01-10T01:38:40.803Z,101896.05
2019-01-10T01:43:33.767Z,101900.62
2019-01-10T01:48:26.722Z,101905.23
2019-01-10T01:53:19.716Z,101911.44
2019-01-10T01:58:12.779Z,101920.48
2019-01-10T02:03:07.044Z,101926.42
2019-01-10T02:07:59.925Z,101928.87
2019-01-10T02:12:52.982Z,101931.30
2019-01-10T02:17:49.242Z,101938.08
2019-01-10T02:22:40.871Z,101941.13
2019-01-10T02:27:33.693Z,101944.78
2019-01-10T02:32:26.587Z,101943.55
2019-01-10T02:37:19.469Z,101957.75
2019-01-10T02:42:14.146Z,101957.50
2019-01-10T02:47:07.017Z,101963.90
2019-01-10T02:51:59.893Z,101962.63
2019-01-10T02:56:52.753Z,101966.38
2019-01-10T03:01:45.612Z,101965.83
2019-01-10T03:06:38.537Z,101969.40
2019-01-10T03:11:32.496Z,101966.14
2019-01-10T03:16:25.394Z,101962.95
2019-01-10T03:21:18.343Z,101971.45
2019-01-10T03:26:11.206Z,101968.55
2019-01-10T03:31:04.358Z,101971.48
2019-01-10T03:35:57.220Z,101970.45
2019-01-10T03:40:50.095Z,101973.48
2019-01-10T03:45:42.979Z,101963.03
2019-01-10T03:50:37.969Z,101968.72
2019-01-10T03:55:30.936Z,101963.50
2019-01-10T04:00:24.612Z,101959.75
2019-01-10T04:05:17.626Z,101957.88
2019-01-10T04:10:11.678Z,101960.95
2019-01-10T04:15:05.348Z,101968.34
2019-01-10T04:19:58.195Z,101968.23
2019-01-10T04:24:51.049Z,101966.14
2019-01-10T04:29:43.941Z,101963.13
2019-01-10T04:34:36.885Z,101969.02
2019-01-10T04:39:29.918Z,101985.95
2019-01-10T04:44:22.743Z,101985.77
2019-01-10T04:49:15.714Z,101986.96
2019-01-10T04:54:08.554Z,101986.75
2019-01-10T04:59:01.462Z,101996.22
2019-01-10T05:03:54.392Z,101995.41
2019-01-10T05:08:49.076Z,101995.80
2019-01-10T05:13:42.227Z,101992.58
2019-01-10T05:18:35.065Z,101997.58
2019-01-10T05:23:28.119Z,101997.98
2019-01-10T05:28:21.047Z,101995.20
2019-01-10T05:33:13.951Z,101995.20
2019-01-10T05:38:06.874Z,102001.09
2019-01-10T05:42:59.808Z,102005.77
2019-01-10T05:47:52.704Z,102004.89
2019-01-10T05:52:45.706Z,102002.74
2019-01-10T05:57:38.560Z,102007.73
2019-01-10T06:02:31.503Z,102004.72
2019-01-10T06:07:24.447Z,102003.98
2019-01-10T06:12:17.371Z,102005.28
2019-01-10T06:17:10.252Z,102005.02
2019-01-10T06:22:03.279Z,102012.16
2019-01-10T06:26:56.236Z,102015.82
2019-01-10T06:31:49.080Z,102020.93
2019-01-10T06:36:42.034Z,102011.95
2019-01-10T06:41:34.976Z,102033.01
2019-01-10T06:46:27.916Z,102041.44
2019-01-10T06:51:20.840Z,102041.08
2019-01-10T06:56:13.744Z,102044.31
2019-01-10T07:01:08.181Z,102060.62
2019-01-10T07:06:01.087Z,102065.48
2019-01-10T07:10:53.968Z,102073.54
2019-01-10T07:15:46.865Z,102074.42
2019-01-10T07:20:40.964Z,102080.80
2019-01-10T07:25:39.952Z,102089.37
2019-01-10T07:30:36.293Z,102089.94
2019-01-10T07:35:27.632Z,102097.39
2019-01-10T07:40:20.522Z,102096.23
2019-01-10T07:45:22.828Z,102099.55
2019-01-10T07:50:17.887Z,102099.12
2019-01-10T07:55:10.994Z,102104.61
2019-01-10T08:00:05.561Z,102106.44
2019-01-10T08:04:58.433Z,102107.07
2019-01-10T08:09:51.807Z,102118.09
2019-01-10T08:14:44.719Z,102119.97
2019-01-10T08:19:37.573Z,102118.91
2019-01-10T08:24:30.444Z,102116.95
2019-01-10T08:29:23.321Z,102114.23
2019-01-10T08:34:16.191Z,102120.55
2019-01-10T08:39:09.211Z,102132.25
2019-01-10T08:44:02.095Z,102128.38
2019-01-10T08:48:55.308Z,102134.12
2019-01-10T08:53:53.766Z,102126.25
2019-01-10T08:58:43.042Z,102128.27
2019-01-10T09:03:35.956Z,102136.58
2019-01-10T09:08:28.922Z,102153.40
2019-01-10T09:13:21.828Z,102153.66
2019-01-10T09:18:14.739Z,102155.20
2019-01-10T09:23:07.610Z,102161.25
2019-01-10T09:28:00.564Z,102168.90
2019-01-10T09:32:53.833Z,102169.64
2019-01-10T09:37:47.000Z,102170.56
2019-01-10T09:42:40.260Z,102170.06
2019-01-10T09:47:33.150Z,102172.02
2019-01-10T09:52:26.042Z,102169.98
2019-01-10T09:57:18.943Z,102173.06
2019-01-10T10:02:11.807Z,102170.91
2019-01-10T10:07:04.656Z,102169.59
2019-01-10T10:11:57.564Z,102165.64
2019-01-10T10:16:50.683Z,102161.19
2019-01-10T10:21:43.689Z,102161.87
2019-01-10T10:26:36.543Z,102170.06
2019-01-10T10:31:29.496Z,102169.92
2019-01-10T10:36:22.483Z,102181.90
2019-01-10T10:41:17.239Z,102182.89
2019-01-10T10:46:12.227Z,102176.11
2019-01-10T10:51:05.173Z,102176.89
2019-01-10T10:56:01.589Z,102175.11
2019-01-10T11:00:58.587Z,102162.26
2019-01-10T11:05:54.169Z,102159.23
2019-01-10T11:10:47.153Z,102160.92
2019-01-10T11:15:40.132Z,102160.83
2019-01-10T11:20:32.987Z,102162.85
2019-01-10T11:25:28.145Z,102163.98
2019-01-10T11:30:21.059Z,102163.56
2019-01-10T11:35:14.526Z,102157.00
2019-01-10T11:40:11.233Z,102162.62
2019-01-10T11:45:07.053Z,102163.74
2019-01-10T11:49:59.924Z,102152.34
2019-01-10T11:54:52.892Z,102152.17
2019-01-10T11:59:45.814Z,102147.27
2019-01-10T12:04:38.850Z,102142.11
2019-01-10T12:09:31.734Z,102140.44
2019-01-10T12:14:24.673Z,102131.43
2019-01-10T12:19:19.359Z,102126.03
2019-01-10T12:24:12.270Z,102131.17
2019-01-10T12:29:05.242Z,102128.95
2019-01-10T12:33:58.058Z,102126.85
2019-01-10T12:38:50.935Z,102127.72
2019-01-10T12:43:43.821Z,102125.28
2019-01-10T12:48:36.743Z,102116.64
2019-01-10T12:53:29.643Z,102120.95
2019-01-10T12:58:22.528Z,102118.84
2019-01-10T13:03:15.535Z,102117.81
2019-01-10T13:08:08.410Z,102121.09
2019-01-10T13:13:01.303Z,102124.57
2019-01-10T13:17:54.325Z,102123.91
2019-01-10T13:22:48.806Z,102134.00
2019-01-10T13:27:41.816Z,102132.84
2019-01-10T13:32:34.741Z,102136.30
2019-01-10T13:37:27.652Z,102128.84
2019-01-10T13:42:20.588Z,102129.95
2019-01-10T13:47:13.535Z,102135.23
2019-01-10T13:52:06.444Z,102136.84
2019-01-10T13:56:59.316Z,102135.06
2019-01-10T14:01:52.363Z,102142.80
2019-01-10T14:06:45.292Z,102140.20
2019-01-10T14:11:38.185Z,102136.48
2019-01-10T14:16:31.123Z,102135.71
2019-01-10T14:21:24.037Z,102140.79
2019-01-10T14:26:18.384Z,102124.30
2019-01-10T14:31:11.291Z,102126.88
2019-01-10T14:36:04.713Z,102136.41
2019-01-10T14:40:58.121Z,102139.09
2019-01-10T14:45:51.234Z,102138.16
2019-01-10T14:50:44.150Z,102132.97
2019-01-10T14:55:37.036Z,102131.61
2019-01-10T15:00:29.970Z,102132.84
2019-01-10T15:05:23.033Z,102131.30
2019-01-10T15:10:16.762Z,102147.02
2019-01-10T15:15:13.967Z,102151.32
2019-01-10T15:20:11.811Z,102148.27
2019-01-10T15:25:05.343Z,102143.85
2019-01-10T15:29:58.233Z,102159.91
2019-01-10T15:34:51.099Z,102156.38
2019-01-10T15:39:44.123Z,102153.54
2019-01-10T15:44:37.170Z,102165.25
2019-01-10T15:49:30.166Z,102165.64
2019-01-10T15:54:23.078Z,102156.95
2019-01-10T15:59:16.192Z,102157.62
2019-01-10T16:04:09.347Z,102152.77
2019-01-10T16:09:06.439Z,102145.70
2019-01-10T16:13:59.485Z,102148.64
2019-01-10T16:18:52.405Z,102158.77
2019-01-10T16:23:45.262Z,102162.15
2019-01-10T16:28:38.132Z,102161.31
2019-01-10T16:33:31.046Z,102157.02
2019-01-10T16:38:23.908Z,102166.02
2019-01-10T16:43:16.804Z,102164.08
2019-01-10T16:48:09.649Z,102159.30
2019-01-10T16:53:02.548Z,102166.10
2019-01-10T16:57:55.587Z,102155.39
2019-01-10T17:02:48.486Z,102160.56
2019-01-10T17:07:41.430Z,102162.66
2019-01-10T17:12:34.324Z,102170.08
2019-01-10T17:17:27.386Z,102173.91
2019-01-10T17:22:20.302Z,102177.71
2019-01-10T17:27:13.262Z,102173.97
2019-01-10T17:32:06.235Z,102180.45
2019-01-10T17:36:59.203Z,102179.57
2019-01-10T17:41:52.319Z,102182.40
2019-01-10T17:46:45.430Z,102188.89
2019-01-10T17:51:38.433Z,102192.43
2019-01-10T17:56:32.665Z,102190.67
2019-01-10T18:01:25.681Z,102197.09
2019-01-10T18:06:18.835Z,102190.72
2019-01-10T18:11:11.737Z,102194.95
2019-01-10T18:16:04.870Z,102195.41
2019-01-10T18:20:57.912Z,102187.08
2019-01-10T18:25:50.907Z,102181.05
2019-01-10T18:30:44.864Z,102177.22
2019-01-10T18:35:38.135Z,102175.02
2019-01-10T18:40:31.101Z,102177.59
2019-01-10T18:45:28.206Z,102178.00
2019-01-10T18:50:22.594Z,102180.72
2019-01-10T18:55:15.529Z,102178.98
2019-01-10T19:00:31.755Z,102181.11
2019-01-10T19:05:25.756Z,102180.77
2019-01-10T19:10:19.303Z,102184.34
2019-01-10T19:15:12.855Z,102187.44
2019-01-10T19:20:11.076Z,102181.87
2019-01-10T19:25:05.020Z,102178.82
2019-01-10T19:29:57.973Z,102187.01
2019-01-10T19:34:50.863Z,102194.37
2019-01-10T19:39:44.363Z,102198.81
2019-01-10T19:44:37.311Z,102200.36
2019-01-10T19:49:30.446Z,102192.39
2019-01-10T19:54:23.417Z,102194.41
2019-01-10T19:59:16.495Z,102197.52
2019-01-10T20:04:10.622Z,102194.48
2019-01-10T20:09:07.641Z,102196.80
2019-01-10T20:14:00.712Z,102198.58
2019-01-10T20:18:53.767Z,102198.02
2019-01-10T20:23:48.534Z,102201.32
2019-01-10T20:28:41.469Z,102205.06
2019-01-10T20:33:34.365Z,102200.33
2019-01-10T20:38:27.608Z,102196.64
2019-01-10T20:43:20.861Z,102205.91
2019-01-10T20:48:40.599Z,102201.73
2019-01-10T20:53:34.729Z,102198.81
2019-01-10T20:58:34.774Z,102190.73
2019-01-10T21:03:32.035Z,102189.04
2019-01-10T21:08:28.623Z,102190.15
2019-01-10T21:13:25.749Z,102196.48
2019-01-10T21:18:28.635Z,102189.83
2019-01-10T21:23:23.319Z,102193.28
2019-01-10T21:28:19.501Z,102201.28
2019-01-10T21:33:12.495Z,102208.56
2019-01-10T21:38:05.429Z,102207.67
2019-01-10T21:42:58.515Z,102208.64
2019-01-10T21:47:51.431Z,102206.95
2019-01-10T21:52:44.338Z,102205.66
2019-01-10T21:57:37.245Z,102196.70
2019-01-10T22:02:30.207Z,102196.91
2019-01-10T22:07:23.041Z,102202.11
2019-01-10T22:12:16.047Z,102205.41
2019-01-10T22:17:09.194Z,102208.05
2019-01-10T22:22:02.113Z,102198.98
2019-01-10T22:26:55.299Z,102202.80
2019-01-10T22:31:48.236Z,102199.23
2019-01-10T22:36:41.142Z,102197.58
2019-01-10T22:41:34.043Z,102191.30
2019-01-10T22:46:27.028Z,102192.91
2019-01-10T22:51:19.901Z,102187.79
2019-01-10T22:56:12.786Z,102186.41
2019-01-10T23:01:36.362Z,102185.86
2019-01-10T23:06:31.120Z,102182.89
2019-01-10T23:11:25.048Z,102180.41
2019-01-10T23:16:20.060Z,102174.27
2019-01-10T23:21:14.355Z,102178.71
2019-01-10T23:26:07.277Z,102181.55
2019-01-10T23:31:03.300Z,102171.78
2019-01-10T23:36:04.786Z,102178.97
2019-01-10T23:40:58.414Z,102171.55
2019-01-10T23:45:53.367Z,102172.95
2019-01-10T23:50:49.743Z,102170.75
2019-01-10T23:55:42.609Z,102165.00
